createdAt,value
2019-05-20T00:00:31.855Z,15.05
2019-05-20T00:01:37.036Z,14.94
2019-05-20T00:02:41.718Z,14.96
2019-05-20T00:03:46.549Z,14.90
2019-05-20T00:04:51.602Z,14.87
2019-05-20T00:05:56.440Z,14.90
2019-05-20T00:07:01.024Z,14.90
2019-05-20T00:08:05.881Z,14.92
2019-05-20T00:09:10.584Z,14.94
2019-05-20T00:10:15.508Z,14.96
2019-05-20T00:11:20.117Z,14.93
2019-05-20T00:12:25.039Z,14.93
2019-05-20T00:13:29.710Z,14.89
2019-05-20T00:14:34.561Z,14.89
2019-05-20T00:15:39.172Z,14.90
2019-05-20T00:16:43.960Z,14.89
2019-05-20T00:17:48.576Z,14.88
2019-05-20T00:18:53.383Z,14.82
2019-05-20T00:19:58.034Z,14.80
2019-05-20T00:21:03.170Z,14.78
2019-05-20T00:22:07.778Z,14.80
2019-05-20T00:23:12.667Z,14.84
2019-05-20T00:24:17.333Z,14.85
2019-05-20T00:25:22.191Z,14.84
2019-05-20T00:26:26.943Z,14.82
2019-05-20T00:27:31.794Z,14.82
2019-05-20T00:28:36.466Z,14.80
2019-05-20T00:29:41.317Z,14.80
2019-05-20T00:30:46.022Z,14.78
2019-05-20T00:31:51.184Z,14.76
2019-05-20T00:32:55.835Z,14.80
2019-05-20T00:34:00.718Z,14.79
2019-05-20T00:35:07.189Z,14.80
2019-05-20T00:36:12.352Z,14.80
2019-05-20T00:37:17.308Z,14.85
2019-05-20T00:38:22.117Z,14.86
2019-05-20T00:39:26.758Z,14.96
2019-05-20T00:40:31.565Z,14.98
2019-05-20T00:41:36.524Z,14.98
2019-05-20T00:42:41.318Z,14.98
2019-05-20T00:43:47.021Z,14.96
2019-05-20T00:44:51.810Z,14.92
2019-05-20T00:45:56.412Z,14.93
2019-05-20T00:47:01.212Z,14.91
2019-05-20T00:48:05.898Z,14.87
2019-05-20T00:49:10.861Z,14.88
2019-05-20T00:50:15.608Z,14.85
2019-05-20T00:51:20.395Z,14.82
2019-05-20T00:52:25.171Z,14.80
2019-05-20T00:53:30.320Z,14.76
2019-05-20T00:54:35.093Z,14.73
2019-05-20T00:55:41.019Z,14.70
2019-05-20T00:56:46.510Z,14.67
2019-05-20T00:57:51.307Z,14.62
2019-05-20T00:58:56.266Z,14.60
2019-05-20T01:00:01.063Z,14.61
2019-05-20T01:01:05.883Z,14.61
2019-05-20T01:02:10.741Z,14.64
2019-05-20T01:03:15.418Z,14.57
2019-05-20T01:04:20.302Z,14.53
2019-05-20T01:05:25.303Z,14.55
2019-05-20T01:06:30.130Z,14.54
2019-05-20T01:07:34.719Z,14.50
2019-05-20T01:08:39.495Z,14.47
2019-05-20T01:09:44.123Z,14.46
2019-05-20T01:10:48.977Z,14.44
2019-05-20T01:11:53.595Z,14.43
2019-05-20T01:12:58.675Z,14.42
2019-05-20T01:14:03.361Z,14.37
2019-05-20T01:15:08.486Z,14.35
2019-05-20T01:16:13.173Z,14.35
2019-05-20T01:17:17.957Z,14.34
2019-05-20T01:18:22.593Z,14.32
2019-05-20T01:19:27.401Z,14.31
2019-05-20T01:20:32.356Z,14.31
2019-05-20T01:21:37.153Z,14.27
2019-05-20T01:22:41.830Z,14.18
2019-05-20T01:23:46.647Z,14.21
2019-05-20T01:24:51.269Z,14.22
2019-05-20T01:25:56.198Z,14.21
2019-05-20T01:27:00.898Z,14.22
2019-05-20T01:28:05.758Z,14.22
2019-05-20T01:29:10.385Z,14.18
2019-05-20T01:30:16.018Z,14.22
2019-05-20T01:31:20.634Z,14.33
2019-05-20T01:32:25.424Z,14.37
2019-05-20T01:33:30.032Z,14.39
2019-05-20T01:34:34.853Z,14.35
2019-05-20T01:35:39.828Z,14.31
2019-05-20T01:36:45.069Z,14.30
2019-05-20T01:37:49.976Z,14.28
2019-05-20T01:38:55.219Z,14.31
2019-05-20T01:40:00.143Z,14.30
2019-05-20T01:41:05.364Z,14.32
2019-05-20T01:42:09.973Z,14.33
2019-05-20T01:43:14.765Z,14.34
2019-05-20T01:44:19.468Z,14.34
2019-05-20T01:45:24.380Z,14.34
2019-05-20T01:46:29.360Z,14.34
2019-05-20T01:47:34.153Z,14.34
2019-05-20T01:48:38.826Z,14.34
2019-05-20T01:49:43.638Z,14.37
2019-05-20T01:50:48.650Z,14.35
2019-05-20T01:51:53.765Z,14.35
2019-05-20T01:52:58.386Z,14.35
2019-05-20T01:54:03.254Z,14.34
2019-05-20T01:55:08.417Z,14.37
2019-05-20T01:56:13.277Z,14.37
2019-05-20T01:57:17.888Z,14.37
2019-05-20T01:58:22.746Z,14.39
2019-05-20T01:59:27.712Z,14.37
2019-05-20T02:00:32.533Z,14.37
2019-05-20T02:01:37.134Z,14.37
2019-05-20T02:02:42.014Z,14.34
2019-05-20T02:03:46.987Z,14.34
2019-05-20T02:04:51.818Z,14.38
2019-05-20T02:05:56.728Z,14.34
2019-05-20T02:07:01.962Z,14.34
2019-05-20T02:08:06.629Z,14.31
2019-05-20T02:09:11.642Z,14.30
2019-05-20T02:10:16.398Z,14.31
2019-05-20T02:11:21.193Z,14.31
2019-05-20T02:12:26.080Z,14.27
2019-05-20T02:13:49.104Z,14.32
2019-05-20T02:14:57.916Z,14.30
2019-05-20T02:16:03.975Z,14.26
2019-05-20T02:17:08.534Z,14.23
2019-05-20T02:18:13.498Z,14.21
2019-05-20T02:19:18.453Z,14.19
2019-05-20T02:20:23.444Z,14.18
2019-05-20T02:21:28.160Z,14.18
2019-05-20T02:22:33.496Z,14.19
2019-05-20T02:23:37.940Z,14.21
2019-05-20T02:24:43.006Z,14.21
2019-05-20T02:25:48.796Z,14.23
2019-05-20T02:26:54.109Z,14.23
2019-05-20T02:27:58.532Z,14.24
2019-05-20T02:29:03.513Z,14.23
2019-05-20T02:30:09.552Z,14.22
2019-05-20T02:31:14.766Z,14.23
2019-05-20T02:32:20.040Z,14.18
2019-05-20T02:33:25.013Z,14.18
2019-05-20T02:34:29.532Z,14.17
2019-05-20T02:35:34.509Z,14.15
2019-05-20T02:36:38.936Z,14.16
2019-05-20T02:37:43.897Z,14.13
2019-05-20T02:38:49.381Z,14.15
2019-05-20T02:39:54.357Z,14.11
2019-05-20T02:40:59.215Z,14.10
2019-05-20T02:42:04.326Z,14.12
2019-05-20T02:43:09.093Z,14.07
2019-05-20T02:44:14.141Z,14.09
2019-05-20T02:45:18.765Z,14.08
2019-05-20T02:46:23.805Z,14.00
2019-05-20T02:47:28.232Z,13.96
2019-05-20T02:48:33.205Z,13.94
2019-05-20T02:49:37.628Z,13.88
2019-05-20T02:50:42.635Z,13.92
2019-05-20T02:51:48.113Z,13.91
2019-05-20T02:52:53.156Z,13.89
2019-05-20T02:53:57.576Z,13.94
2019-05-20T02:55:02.550Z,13.93
2019-05-20T02:56:08.126Z,13.97
2019-05-20T02:57:13.115Z,14.00
2019-05-20T02:58:17.550Z,13.94
2019-05-20T02:59:22.529Z,13.93
2019-05-20T03:00:27.109Z,13.92
2019-05-20T03:01:32.213Z,13.93
2019-05-20T03:02:36.728Z,13.92
2019-05-20T03:03:41.677Z,13.93
2019-05-20T03:04:46.107Z,13.93
2019-05-20T03:05:51.192Z,13.90
2019-05-20T03:06:56.702Z,13.86
2019-05-20T03:08:01.683Z,13.86
2019-05-20T03:09:06.563Z,13.88
2019-05-20T03:10:11.876Z,13.89
2019-05-20T03:11:16.317Z,13.85
2019-05-20T03:12:21.380Z,13.83
2019-05-20T03:13:25.845Z,13.81
2019-05-20T03:14:30.899Z,13.80
2019-05-20T03:15:35.781Z,13.78
2019-05-20T03:16:40.815Z,13.78
2019-05-20T03:17:45.673Z,13.76
2019-05-20T03:18:50.627Z,13.75
2019-05-20T03:19:55.122Z,13.75
2019-05-20T03:21:00.107Z,13.75
2019-05-20T03:22:05.497Z,13.80
2019-05-20T03:23:10.558Z,13.79
2019-05-20T03:24:15.058Z,13.76
2019-05-20T03:25:20.101Z,13.76
2019-05-20T03:26:24.533Z,13.75
2019-05-20T03:27:29.576Z,13.78
2019-05-20T03:28:34.177Z,13.73
2019-05-20T03:29:39.486Z,13.78
2019-05-20T03:30:44.359Z,13.75
2019-05-20T03:31:49.346Z,13.77
2019-05-20T03:32:53.756Z,13.76
2019-05-20T03:33:59.138Z,13.79
2019-05-20T03:35:07.320Z,13.84
2019-05-20T03:36:12.811Z,13.84
2019-05-20T03:37:17.569Z,13.83
2019-05-20T03:38:22.616Z,13.87
2019-05-20T03:39:27.576Z,13.86
2019-05-20T03:40:32.564Z,13.89
2019-05-20T03:41:37.407Z,13.89
2019-05-20T03:42:43.475Z,13.91
2019-05-20T03:43:48.187Z,13.91
2019-05-20T03:44:53.622Z,13.95
2019-05-20T03:45:58.069Z,13.99
2019-05-20T03:47:03.207Z,14.02
2019-05-20T03:48:07.658Z,14.02
2019-05-20T03:49:12.696Z,14.04
2019-05-20T03:50:17.234Z,14.04
2019-05-20T03:51:22.316Z,14.08
2019-05-20T03:52:26.806Z,14.06
2019-05-20T03:53:31.776Z,14.11
2019-05-20T03:54:36.605Z,14.11
2019-05-20T03:55:41.597Z,14.14
2019-05-20T03:56:46.021Z,14.17
2019-05-20T03:57:51.355Z,14.15
2019-05-20T03:58:55.853Z,14.19
2019-05-20T04:00:00.893Z,14.19
2019-05-20T04:01:05.501Z,14.21
2019-05-20T04:02:10.618Z,14.23
2019-05-20T04:03:15.487Z,14.23
2019-05-20T04:04:20.460Z,14.24
2019-05-20T04:05:25.198Z,14.26
2019-05-20T04:06:30.197Z,14.31
2019-05-20T04:07:34.637Z,14.27
2019-05-20T04:08:39.843Z,14.33
2019-05-20T04:09:44.573Z,14.36
2019-05-20T04:10:49.639Z,14.34
2019-05-20T04:11:54.135Z,14.34
2019-05-20T04:12:59.668Z,14.42
2019-05-20T04:14:04.225Z,14.44
2019-05-20T04:15:10.218Z,14.43
2019-05-20T04:16:14.656Z,14.47
2019-05-20T04:17:19.638Z,14.55
2019-05-20T04:18:24.056Z,14.51
2019-05-20T04:19:29.122Z,14.49
2019-05-20T04:20:33.626Z,14.57
2019-05-20T04:21:38.610Z,14.49
2019-05-20T04:22:43.439Z,14.52
2019-05-20T04:23:48.651Z,14.53
2019-05-20T04:24:53.076Z,14.55
2019-05-20T04:25:58.507Z,14.50
2019-05-20T04:27:02.967Z,14.54
2019-05-20T04:28:08.012Z,14.54
2019-05-20T04:29:12.740Z,14.58
2019-05-20T04:30:19.182Z,14.62
2019-05-20T04:31:23.780Z,14.59
2019-05-20T04:32:28.853Z,14.58
2019-05-20T04:33:33.946Z,14.67
2019-05-20T04:34:38.976Z,14.79
2019-05-20T04:35:43.835Z,14.84
2019-05-20T04:36:48.829Z,14.90
2019-05-20T04:37:53.403Z,14.90
2019-05-20T04:38:58.446Z,14.84
2019-05-20T04:40:04.373Z,14.81
2019-05-20T04:41:09.801Z,14.75
2019-05-20T04:42:14.290Z,14.91
2019-05-20T04:43:20.588Z,14.97
2019-05-20T04:44:25.005Z,14.94
2019-05-20T04:45:31.519Z,14.98
2019-05-20T04:46:36.336Z,15.02
2019-05-20T04:47:41.406Z,15.02
2019-05-20T04:48:45.846Z,15.08
2019-05-20T04:49:50.888Z,15.18
2019-05-20T04:50:55.313Z,15.11
2019-05-20T04:52:00.302Z,15.17
2019-05-20T04:53:04.794Z,15.30
2019-05-20T04:54:09.772Z,15.41
2019-05-20T04:55:14.327Z,15.42
2019-05-20T04:56:19.300Z,15.44
2019-05-20T04:57:23.745Z,15.40
2019-05-20T04:58:29.172Z,15.37
2019-05-20T04:59:33.913Z,15.40
2019-05-20T05:00:51.188Z,15.39
2019-05-20T05:01:56.707Z,15.56
2019-05-20T05:03:01.673Z,15.78
2019-05-20T05:04:06.169Z,15.89
2019-05-20T05:05:11.777Z,16.00
2019-05-20T05:06:16.204Z,16.12
2019-05-20T05:07:21.373Z,16.15
2019-05-20T05:08:26.051Z,16.23
2019-05-20T05:09:31.377Z,16.26
2019-05-20T05:10:35.912Z,16.19
2019-05-20T05:11:41.039Z,16.07
2019-05-20T05:12:45.557Z,16.22
2019-05-20T05:13:50.971Z,16.22
2019-05-20T05:14:55.519Z,16.18
2019-05-20T05:16:00.645Z,16.29
2019-05-20T05:17:05.323Z,16.41
2019-05-20T05:18:10.749Z,16.52
2019-05-20T05:19:15.245Z,16.73
2019-05-20T05:20:20.288Z,16.77
2019-05-20T05:21:25.056Z,16.78
2019-05-20T05:22:30.116Z,16.68
2019-05-20T05:23:34.609Z,16.94
2019-05-20T05:24:39.725Z,17.01
2019-05-20T05:25:44.695Z,17.13
2019-05-20T05:26:49.743Z,16.94
2019-05-20T05:27:54.181Z,16.99
2019-05-20T05:28:59.578Z,16.98
2019-05-20T05:30:06.078Z,17.09
2019-05-20T05:31:11.353Z,17.11
2019-05-20T05:32:17.438Z,17.30
2019-05-20T05:33:22.451Z,17.52
2019-05-20T05:34:26.942Z,17.71
2019-05-20T05:35:32.058Z,17.70
2019-05-20T05:36:36.616Z,17.67
2019-05-20T05:37:41.838Z,17.90
2019-05-20T05:38:46.210Z,17.71
2019-05-20T05:39:51.267Z,17.76
2019-05-20T05:40:55.959Z,18.15
2019-05-20T05:42:00.940Z,18.26
2019-05-20T05:43:05.450Z,18.15
2019-05-20T05:44:10.421Z,18.04
2019-05-20T05:45:15.462Z,18.00
2019-05-20T05:46:20.468Z,17.75
2019-05-20T05:47:24.912Z,17.84
2019-05-20T05:48:30.216Z,17.81
2019-05-20T05:49:34.633Z,17.71
2019-05-20T05:50:39.683Z,17.86
2019-05-20T05:51:44.100Z,17.68
2019-05-20T05:52:49.099Z,17.59
2019-05-20T05:53:53.924Z,17.42
2019-05-20T05:54:58.934Z,17.28
2019-05-20T05:56:03.641Z,17.14
2019-05-20T05:57:08.685Z,17.33
2019-05-20T05:58:13.189Z,17.52
2019-05-20T05:59:18.166Z,17.67
2019-05-20T06:00:22.932Z,17.55
2019-05-20T06:01:27.973Z,17.36
2019-05-20T06:02:32.426Z,17.46
2019-05-20T06:03:38.408Z,17.42
2019-05-20T06:04:43.122Z,17.56
2019-05-20T06:05:49.073Z,17.41
2019-05-20T06:06:53.507Z,17.50
2019-05-20T06:07:58.508Z,17.54
2019-05-20T06:09:04.694Z,17.53
2019-05-20T06:10:10.113Z,17.76
2019-05-20T06:11:14.541Z,17.86
2019-05-20T06:12:19.674Z,17.90
2019-05-20T06:13:24.104Z,17.65
2019-05-20T06:14:29.077Z,17.44
2019-05-20T06:15:34.011Z,17.52
2019-05-20T06:16:38.995Z,17.52
2019-05-20T06:17:43.720Z,17.56
2019-05-20T06:18:48.717Z,17.72
2019-05-20T06:19:53.135Z,17.63
2019-05-20T06:20:58.112Z,18.03
2019-05-20T06:22:03.683Z,18.09
2019-05-20T06:23:08.792Z,18.31
2019-05-20T06:24:13.565Z,18.34
2019-05-20T06:25:19.084Z,18.23
2019-05-20T06:26:23.638Z,18.24
2019-05-20T06:27:29.741Z,18.71
2019-05-20T06:28:34.125Z,18.80
2019-05-20T06:29:39.193Z,18.88
2019-05-20T06:30:44.852Z,18.77
2019-05-20T06:31:49.946Z,18.87
2019-05-20T06:32:54.436Z,19.12
2019-05-20T06:33:59.414Z,18.74
2019-05-20T06:35:07.726Z,18.83
2019-05-20T06:36:25.930Z,18.83
2019-05-20T06:37:20.867Z,18.84
2019-05-20T06:38:35.798Z,19.11
2019-05-20T06:39:40.218Z,19.11
2019-05-20T06:40:45.275Z,19.01
2019-05-20T06:41:50.422Z,19.24
2019-05-20T06:42:58.147Z,19.14
2019-05-20T06:44:02.574Z,18.80
2019-05-20T06:45:08.200Z,19.07
2019-05-20T06:46:12.618Z,19.45
2019-05-20T06:47:18.020Z,19.82
2019-05-20T06:48:22.527Z,19.96
2019-05-20T06:49:27.517Z,20.09
2019-05-20T06:50:32.248Z,20.09
2019-05-20T06:51:37.295Z,20.19
2019-05-20T06:52:41.724Z,20.20
2019-05-20T06:53:46.727Z,19.94
2019-05-20T06:54:51.179Z,20.18
2019-05-20T06:55:56.217Z,20.27
2019-05-20T06:57:01.810Z,19.95
2019-05-20T06:58:06.841Z,19.91
2019-05-20T06:59:11.373Z,19.62
2019-05-20T07:00:22.110Z,19.58
2019-05-20T07:01:26.600Z,19.80
2019-05-20T07:02:32.974Z,19.62
2019-05-20T07:03:37.893Z,19.81
2019-05-20T07:04:42.881Z,19.76
2019-05-20T07:05:47.312Z,19.61
2019-05-20T07:06:52.660Z,19.89
2019-05-20T07:07:57.585Z,20.00
2019-05-20T07:09:02.913Z,19.93
2019-05-20T07:10:09.296Z,20.13
2019-05-20T07:11:14.270Z,20.10
2019-05-20T07:12:18.692Z,20.18
2019-05-20T07:13:23.744Z,19.94
2019-05-20T07:14:28.188Z,20.14
2019-05-20T07:15:33.238Z,20.37
2019-05-20T07:16:37.873Z,20.52
2019-05-20T07:17:42.915Z,20.71
2019-05-20T07:18:47.525Z,20.60
2019-05-20T07:19:52.673Z,20.64
2019-05-20T07:20:57.166Z,20.80
2019-05-20T07:22:02.623Z,20.60
2019-05-20T07:23:07.194Z,20.57
2019-05-20T07:24:12.572Z,20.57
2019-05-20T07:25:17.331Z,20.88
2019-05-20T07:26:22.480Z,20.35
2019-05-20T07:27:26.969Z,20.60
2019-05-20T07:28:31.954Z,20.76
2019-05-20T07:29:36.748Z,20.82
2019-05-20T07:30:41.790Z,20.98
2019-05-20T07:31:46.287Z,20.61
2019-05-20T07:32:51.339Z,20.28
2019-05-20T07:33:55.952Z,20.32
2019-05-20T07:35:00.979Z,20.38
2019-05-20T07:36:09.817Z,20.76
2019-05-20T07:37:13.255Z,21.00
2019-05-20T07:38:17.739Z,21.10
2019-05-20T07:39:22.741Z,21.38
2019-05-20T07:40:31.525Z,21.23
2019-05-20T07:41:36.513Z,21.51
2019-05-20T07:42:40.925Z,21.75
2019-05-20T07:43:46.040Z,21.84
2019-05-20T07:44:50.615Z,21.83
2019-05-20T07:45:55.928Z,21.86
2019-05-20T07:47:00.556Z,21.15
2019-05-20T07:48:06.361Z,21.12
2019-05-20T07:49:11.986Z,21.52
2019-05-20T07:50:17.744Z,21.72
2019-05-20T07:51:23.169Z,21.87
2019-05-20T07:52:29.322Z,21.84
2019-05-20T07:53:34.488Z,21.97
2019-05-20T07:54:39.919Z,21.97
2019-05-20T07:55:53.227Z,22.08
2019-05-20T07:57:01.468Z,22.03
2019-05-20T07:58:08.557Z,21.77
2019-05-20T07:59:15.978Z,21.65
2019-05-20T08:00:20.952Z,21.64
2019-05-20T08:01:26.145Z,21.87
2019-05-20T08:02:31.007Z,22.04
2019-05-20T08:03:38.582Z,22.15
2019-05-20T08:04:42.310Z,22.23
2019-05-20T08:05:47.287Z,22.33
2019-05-20T08:06:51.891Z,22.47
2019-05-20T08:07:57.004Z,22.64
2019-05-20T08:09:01.614Z,22.55
2019-05-20T08:10:08.806Z,22.51
2019-05-20T08:11:13.378Z,22.56
2019-05-20T08:12:18.547Z,22.32
2019-05-20T08:13:23.042Z,22.10
2019-05-20T08:14:28.357Z,22.03
2019-05-20T08:15:33.173Z,22.12
2019-05-20T08:16:38.225Z,22.07
2019-05-20T08:17:42.655Z,21.67
2019-05-20T08:18:47.883Z,21.53
2019-05-20T08:19:52.326Z,21.88
2019-05-20T08:20:57.456Z,21.87
2019-05-20T08:22:01.874Z,22.41
2019-05-20T08:23:06.969Z,22.06
2019-05-20T08:24:11.402Z,22.19
2019-05-20T08:25:16.936Z,22.25
2019-05-20T08:26:21.501Z,21.89
2019-05-20T08:27:26.610Z,21.86
2019-05-20T08:28:31.188Z,22.03
2019-05-20T08:29:36.543Z,22.16
2019-05-20T08:30:41.121Z,22.21
2019-05-20T08:31:46.092Z,22.24
2019-05-20T08:32:50.826Z,21.99
2019-05-20T08:33:56.106Z,22.39
2019-05-20T08:35:01.672Z,22.86
2019-05-20T08:36:06.845Z,23.05
2019-05-20T08:37:17.811Z,22.50
2019-05-20T08:38:23.907Z,22.58
2019-05-20T08:39:28.399Z,22.86
2019-05-20T08:40:33.404Z,22.66
2019-05-20T08:41:37.924Z,22.65
2019-05-20T08:42:42.897Z,22.63
2019-05-20T08:43:47.474Z,22.99
2019-05-20T08:44:52.501Z,23.30
2019-05-20T08:45:56.961Z,23.40
2019-05-20T08:47:02.061Z,22.86
2019-05-20T08:48:06.690Z,23.10
2019-05-20T08:49:11.976Z,23.43
2019-05-20T08:50:16.651Z,23.46
2019-05-20T08:51:21.683Z,23.75
2019-05-20T08:52:26.057Z,23.08
2019-05-20T08:53:31.080Z,23.07
2019-05-20T08:54:35.500Z,23.29
2019-05-20T08:55:40.578Z,23.50
2019-05-20T08:56:48.713Z,23.33
2019-05-20T08:57:51.950Z,23.17
2019-05-20T08:58:56.926Z,23.07
2019-05-20T09:00:02.559Z,22.97
2019-05-20T09:01:08.908Z,23.21
2019-05-20T09:02:14.268Z,23.43
2019-05-20T09:03:18.765Z,23.37
2019-05-20T09:04:23.744Z,23.28
2019-05-20T09:05:28.926Z,23.56
2019-05-20T09:06:34.093Z,23.58
2019-05-20T09:07:39.588Z,23.79
2019-05-20T09:08:44.579Z,23.94
2019-05-20T09:09:49.177Z,23.42
2019-05-20T09:10:54.177Z,23.56
2019-05-20T09:11:58.635Z,23.65
2019-05-20T09:13:03.666Z,23.29
2019-05-20T09:14:08.199Z,23.31
2019-05-20T09:15:13.910Z,23.62
2019-05-20T09:16:18.439Z,23.74
2019-05-20T09:17:23.473Z,23.48
2019-05-20T09:18:27.913Z,23.04
2019-05-20T09:19:34.228Z,23.22
2019-05-20T09:20:38.683Z,23.51
2019-05-20T09:21:43.761Z,23.18
2019-05-20T09:22:48.258Z,23.57
2019-05-20T09:23:53.368Z,23.78
2019-05-20T09:24:57.979Z,23.94
2019-05-20T09:26:03.213Z,23.95
2019-05-20T09:27:07.955Z,24.06
2019-05-20T09:28:13.011Z,24.49
2019-05-20T09:29:17.550Z,24.93
2019-05-20T09:30:23.187Z,25.54
2019-05-20T09:31:28.474Z,25.52
2019-05-20T09:32:33.585Z,25.99
2019-05-20T09:33:38.739Z,25.74
2019-05-20T09:34:44.023Z,25.84
2019-05-20T09:35:49.018Z,26.15
2019-05-20T09:36:54.254Z,25.64
2019-05-20T09:37:58.734Z,25.24
2019-05-20T09:39:05.358Z,24.47
2019-05-20T09:40:10.707Z,24.32
2019-05-20T09:41:15.900Z,24.53
2019-05-20T09:42:20.385Z,24.42
2019-05-20T09:43:25.421Z,24.17
2019-05-20T09:44:30.195Z,24.30
2019-05-20T09:45:35.713Z,24.88
2019-05-20T09:46:40.214Z,24.74
2019-05-20T09:47:45.266Z,24.41
2019-05-20T09:48:49.839Z,24.69
2019-05-20T09:49:54.821Z,24.75
2019-05-20T09:50:59.579Z,25.01
2019-05-20T09:52:04.641Z,24.87
2019-05-20T09:53:09.493Z,25.00
2019-05-20T09:54:14.535Z,25.04
2019-05-20T09:55:19.099Z,25.44
2019-05-20T09:56:24.153Z,25.55
2019-05-20T09:57:29.575Z,25.64
2019-05-20T09:58:34.535Z,25.83
2019-05-20T09:59:43.332Z,25.89
2019-05-20T10:00:47.026Z,25.80
2019-05-20T10:01:52.544Z,25.91
2019-05-20T10:02:57.644Z,25.57
2019-05-20T10:04:02.217Z,25.49
2019-05-20T10:05:07.512Z,25.80
2019-05-20T10:06:12.068Z,26.01
2019-05-20T10:07:17.068Z,26.21
2019-05-20T10:08:36.425Z,26.19
2019-05-20T10:09:28.852Z,25.81
2019-05-20T10:10:33.367Z,25.84
2019-05-20T10:11:39.623Z,25.78
2019-05-20T10:12:46.391Z,26.07
2019-05-20T10:13:50.722Z,26.34
2019-05-20T10:14:55.134Z,26.39
2019-05-20T10:16:00.187Z,26.21
2019-05-20T10:17:04.723Z,26.40
2019-05-20T10:18:10.158Z,25.60
2019-05-20T10:19:15.552Z,25.53
2019-05-20T10:20:20.762Z,25.65
2019-05-20T10:21:25.440Z,25.45
2019-05-20T10:22:30.500Z,25.51
2019-05-20T10:23:35.200Z,25.23
2019-05-20T10:24:40.240Z,25.38
2019-05-20T10:25:44.657Z,25.59
2019-05-20T10:26:49.655Z,25.77
2019-05-20T10:27:57.557Z,25.74
2019-05-20T10:29:00.897Z,25.81
2019-05-20T10:30:08.663Z,25.79
2019-05-20T10:31:13.635Z,25.31
2019-05-20T10:32:18.078Z,25.77
2019-05-20T10:33:23.372Z,26.18
2019-05-20T10:34:27.816Z,26.41
2019-05-20T10:35:32.825Z,26.31
2019-05-20T10:36:37.327Z,26.58
2019-05-20T10:37:42.381Z,26.69
2019-05-20T10:38:58.195Z,26.45
2019-05-20T10:39:53.805Z,26.28
2019-05-20T10:40:58.238Z,26.96
2019-05-20T10:42:03.297Z,26.30
2019-05-20T10:43:07.853Z,26.37
2019-05-20T10:44:12.906Z,25.58
2019-05-20T10:45:17.469Z,25.46
2019-05-20T10:46:22.722Z,26.10
2019-05-20T10:47:27.228Z,26.07
2019-05-20T10:48:32.194Z,26.14
2019-05-20T10:49:36.682Z,26.25
2019-05-20T10:50:41.761Z,26.47
2019-05-20T10:51:46.288Z,26.09
2019-05-20T10:52:51.677Z,26.14
2019-05-20T10:53:56.111Z,26.27
2019-05-20T10:55:01.408Z,26.32
2019-05-20T10:56:06.055Z,26.49
2019-05-20T10:57:11.277Z,25.96
2019-05-20T10:58:15.712Z,26.25
2019-05-20T10:59:20.710Z,25.46
2019-05-20T11:00:25.355Z,25.04
2019-05-20T11:01:30.645Z,25.33
2019-05-20T11:02:35.175Z,25.41
2019-05-20T11:03:40.232Z,25.81
2019-05-20T11:04:44.667Z,26.13
2019-05-20T11:05:49.800Z,26.04
2019-05-20T11:06:54.248Z,25.95
2019-05-20T11:07:59.296Z,26.15
2019-05-20T11:09:13.666Z,26.04
2019-05-20T11:10:11.926Z,25.60
2019-05-20T11:11:16.389Z,25.21
2019-05-20T11:12:21.446Z,25.24
2019-05-20T11:13:26.097Z,25.27
2019-05-20T11:14:31.173Z,25.30
2019-05-20T11:15:35.606Z,25.23
2019-05-20T11:16:40.743Z,24.93
2019-05-20T11:17:45.201Z,25.20
2019-05-20T11:18:50.202Z,25.33
2019-05-20T11:19:54.648Z,25.34
2019-05-20T11:20:59.708Z,25.18
2019-05-20T11:22:04.288Z,25.18
2019-05-20T11:23:09.699Z,25.31
2019-05-20T11:24:14.141Z,25.14
2019-05-20T11:25:19.348Z,25.06
2019-05-20T11:26:24.824Z,24.98
2019-05-20T11:27:29.844Z,24.80
2019-05-20T11:28:34.291Z,24.80
2019-05-20T11:29:39.289Z,24.81
2019-05-20T11:30:43.816Z,24.50
2019-05-20T11:31:48.821Z,24.39
2019-05-20T11:32:53.420Z,24.59
2019-05-20T11:33:58.416Z,24.58
2019-05-20T11:35:03.392Z,24.34
2019-05-20T11:36:08.763Z,24.32
2019-05-20T11:37:13.310Z,24.41
2019-05-20T11:38:18.356Z,24.14
2019-05-20T11:39:33.343Z,24.20
2019-05-20T11:40:29.633Z,24.41
2019-05-20T11:41:52.858Z,24.28
2019-05-20T11:42:44.384Z,24.22
2019-05-20T11:43:48.899Z,24.27
2019-05-20T11:44:53.904Z,24.31
2019-05-20T11:45:58.419Z,24.46
2019-05-20T11:47:03.450Z,24.49
2019-05-20T11:48:08.340Z,24.34
2019-05-20T11:49:13.416Z,24.33
2019-05-20T11:50:18.199Z,24.40
2019-05-20T11:51:23.195Z,24.36
2019-05-20T11:52:27.762Z,24.57
2019-05-20T11:53:32.868Z,24.64
2019-05-20T11:54:37.308Z,24.64
2019-05-20T11:55:42.310Z,24.57
2019-05-20T11:56:46.825Z,24.68
2019-05-20T11:57:51.839Z,24.57
2019-05-20T11:58:56.637Z,24.78
2019-05-20T12:00:01.987Z,24.88
2019-05-20T12:01:06.691Z,24.94
2019-05-20T12:02:11.750Z,24.94
2019-05-20T12:03:16.217Z,25.22
2019-05-20T12:04:21.277Z,25.48
2019-05-20T12:05:25.739Z,25.48
2019-05-20T12:06:30.973Z,25.41
2019-05-20T12:07:35.499Z,25.34
2019-05-20T12:08:41.491Z,25.24
2019-05-20T12:09:49.664Z,25.08
2019-05-20T12:10:53.340Z,25.16
2019-05-20T12:11:58.125Z,25.33
2019-05-20T12:13:03.162Z,25.37
2019-05-20T12:14:07.587Z,25.52
2019-05-20T12:15:14.025Z,25.50
2019-05-20T12:16:18.548Z,25.29
2019-05-20T12:17:23.540Z,25.13
2019-05-20T12:18:29.141Z,25.16
2019-05-20T12:19:34.137Z,25.14
2019-05-20T12:20:38.870Z,25.11
2019-05-20T12:21:43.883Z,25.18
2019-05-20T12:22:48.613Z,25.05
2019-05-20T12:23:53.636Z,25.28
2019-05-20T12:24:58.086Z,25.28
2019-05-20T12:26:03.151Z,25.20
2019-05-20T12:27:07.592Z,25.20
2019-05-20T12:28:12.978Z,24.44
2019-05-20T12:29:17.469Z,24.52
2019-05-20T12:30:23.491Z,24.60
2019-05-20T12:31:27.926Z,24.83
2019-05-20T12:32:33.205Z,25.06
2019-05-20T12:33:37.664Z,24.91
2019-05-20T12:34:44.012Z,25.00
2019-05-20T12:35:48.449Z,24.80
2019-05-20T12:36:53.509Z,25.17
2019-05-20T12:37:58.275Z,25.24
2019-05-20T12:39:03.851Z,25.40
2019-05-20T12:40:09.060Z,25.37
2019-05-20T12:41:14.212Z,25.18
2019-05-20T12:42:18.653Z,25.20
2019-05-20T12:43:24.008Z,24.50
2019-05-20T12:44:28.444Z,24.55
2019-05-20T12:45:33.579Z,24.38
2019-05-20T12:46:38.097Z,24.65
2019-05-20T12:47:43.175Z,24.62
2019-05-20T12:48:47.708Z,24.48
2019-05-20T12:49:52.718Z,24.34
2019-05-20T12:50:57.162Z,24.20
2019-05-20T12:52:02.212Z,24.28
2019-05-20T12:53:06.666Z,24.22
2019-05-20T12:54:11.684Z,24.32
2019-05-20T12:55:16.251Z,24.17
2019-05-20T12:56:21.610Z,24.08
2019-05-20T12:57:26.430Z,24.24
2019-05-20T12:58:31.425Z,24.35
2019-05-20T12:59:36.160Z,24.40
2019-05-20T13:00:41.166Z,24.58
2019-05-20T13:01:45.683Z,24.87
2019-05-20T13:02:50.740Z,24.98
2019-05-20T13:03:55.205Z,25.11
2019-05-20T13:05:00.186Z,25.28
2019-05-20T13:06:04.695Z,25.16
2019-05-20T13:07:09.745Z,24.76
2019-05-20T13:08:14.251Z,24.92
2019-05-20T13:09:19.262Z,24.97
2019-05-20T13:10:29.646Z,25.20
2019-05-20T13:11:30.533Z,25.04
2019-05-20T13:12:34.974Z,25.20
2019-05-20T13:13:39.943Z,25.10
2019-05-20T13:14:44.421Z,25.08
2019-05-20T13:15:49.685Z,25.09
2019-05-20T13:16:54.102Z,25.18
2019-05-20T13:17:59.431Z,25.19
2019-05-20T13:19:03.869Z,25.36
2019-05-20T13:20:10.853Z,25.36
2019-05-20T13:21:15.273Z,25.39
2019-05-20T13:22:20.589Z,25.59
2019-05-20T13:23:25.281Z,25.54
2019-05-20T13:24:30.282Z,25.29
2019-05-20T13:25:36.042Z,25.31
2019-05-20T13:26:41.364Z,24.95
2019-05-20T13:27:45.849Z,24.67
2019-05-20T13:28:50.820Z,24.65
2019-05-20T13:29:55.624Z,24.60
2019-05-20T13:31:00.594Z,24.68
2019-05-20T13:32:05.039Z,24.42
2019-05-20T13:33:10.038Z,24.27
2019-05-20T13:34:18.385Z,24.28
2019-05-20T13:35:22.687Z,24.09
2019-05-20T13:36:27.186Z,24.06
2019-05-20T13:37:32.564Z,23.88
2019-05-20T13:38:37.055Z,23.79
2019-05-20T13:39:42.053Z,23.83
2019-05-20T13:40:47.524Z,23.82
2019-05-20T13:41:52.613Z,23.84
2019-05-20T13:42:57.449Z,23.69
2019-05-20T13:44:02.447Z,23.70
2019-05-20T13:45:07.853Z,23.69
2019-05-20T13:46:12.877Z,23.66
2019-05-20T13:47:17.368Z,23.56
2019-05-20T13:48:22.475Z,23.47
2019-05-20T13:49:26.906Z,23.41
2019-05-20T13:50:31.881Z,23.45
2019-05-20T13:51:38.641Z,23.45
2019-05-20T13:52:43.030Z,23.37
2019-05-20T13:53:47.453Z,23.31
2019-05-20T13:54:53.417Z,23.30
2019-05-20T13:55:57.900Z,23.29
2019-05-20T13:57:02.877Z,23.21
2019-05-20T13:58:07.361Z,23.18